AIRPORT ID: M17

DATE: 2024-02-27 ZULU TIME: 9.15 LOCAL TIME: 3.15


METAR KM17 270915Z AUTO 20007KT 170V230 10SM 18/13 A2945

ALTIMETER: A2945 Q997

DENSITY ALT: 2100 Ft

WIND DIRECT: 200

WIND SPEED: 7 Gust

WIND CONDITIONS:

VISIBILTY: 10SM 9999M

TEMPERATURE: 65 F 18 C

DEW POINT: 55 F 13 C

HUMID: 69%

LCL: 1,000-3,000 feet

RADIO CHECK: 0

ADVISARIES: 0

GREETINGS: 0

CONVERSATIONS: 0